sensor_id;sensor_type;location;lat;lon;timestamp;temperature;humidity
53272;DHT22;39160;48.580;7.756;2023-05-21T00:01:05;17.80;98.40
53272;DHT22;39160;48.580;7.756;2023-05-21T00:05:56;17.80;98.50
53272;DHT22;39160;48.580;7.756;2023-05-21T00:10:46;17.80;98.60
53272;DHT22;39160;48.580;7.756;2023-05-21T00:15:37;17.80;98.60
53272;DHT22;39160;48.580;7.756;2023-05-21T00:20:28;17.70;98.80
53272;DHT22;39160;48.580;7.756;2023-05-21T00:25:21;17.70;98.60
53272;DHT22;39160;48.580;7.756;2023-05-21T00:30:13;17.70;98.60
53272;DHT22;39160;48.580;7.756;2023-05-21T00:35:05;17.70;98.70
53272;DHT22;39160;48.580;7.756;2023-05-21T00:39:56;17.60;99.20
53272;DHT22;39160;48.580;7.756;2023-05-21T00:44:46;17.60;99.00
53272;DHT22;39160;48.580;7.756;2023-05-21T00:49:37;17.60;98.90
53272;DHT22;39160;48.580;7.756;2023-05-21T00:54:29;17.50;99.20
53272;DHT22;39160;48.580;7.756;2023-05-21T00:59:20;17.50;99.30
53272;DHT22;39160;48.580;7.756;2023-05-21T01:04:11;17.60;99.20
53272;DHT22;39160;48.580;7.756;2023-05-21T01:09:02;17.50;99.20
53272;DHT22;39160;48.580;7.756;2023-05-21T01:13:54;17.50;99.30
53272;DHT22;39160;48.580;7.756;2023-05-21T01:18:45;17.50;99.40
53272;DHT22;39160;48.580;7.756;2023-05-21T01:23:36;17.40;99.50
53272;DHT22;39160;48.580;7.756;2023-05-21T01:28:26;17.50;99.40
53272;DHT22;39160;48.580;7.756;2023-05-21T01:33:25;17.50;99.50
53272;DHT22;39160;48.580;7.756;2023-05-21T01:38:24;17.50;99.60
53272;DHT22;39160;48.580;7.756;2023-05-21T01:43:18;17.40;99.70
53272;DHT22;39160;48.580;7.756;2023-05-21T01:48:10;17.30;99.80
53272;DHT22;39160;48.580;7.756;2023-05-21T01:53:02;17.30;99.90
53272;DHT22;39160;48.580;7.756;2023-05-21T01:57:55;17.20;99.90
53272;DHT22;39160;48.580;7.756;2023-05-21T02:02:46;17.30;99.90
53272;DHT22;39160;48.580;7.756;2023-05-21T02:07:36;17.30;99.90
53272;DHT22;39160;48.580;7.756;2023-05-21T02:12:28;17.30;99.90
53272;DHT22;39160;48.580;7.756;2023-05-21T02:17:18;17.20;99.90
53272;DHT22;39160;48.580;7.756;2023-05-21T02:22:10;17.10;99.90
53272;DHT22;39160;48.580;7.756;2023-05-21T02:27:01;17.20;99.90
53272;DHT22;39160;48.580;7.756;2023-05-21T02:31:52;17.20;99.90
53272;DHT22;39160;48.580;7.756;2023-05-21T02:36:43;17.20;99.90
53272;DHT22;39160;48.580;7.756;2023-05-21T02:41:33;17.20;99.90
53272;DHT22;39160;48.580;7.756;2023-05-21T02:46:24;17.20;99.90
53272;DHT22;39160;48.580;7.756;2023-05-21T02:51:14;17.10;99.90
53272;DHT22;39160;48.580;7.756;2023-05-21T02:56:05;17.10;99.90
53272;DHT22;39160;48.580;7.756;2023-05-21T03:00:56;17.10;99.90
53272;DHT22;39160;48.580;7.756;2023-05-21T03:05:47;17.10;99.90
53272;DHT22;39160;48.580;7.756;2023-05-21T03:10:37;17.00;99.90
53272;DHT22;39160;48.580;7.756;2023-05-21T03:15:28;17.00;99.90
53272;DHT22;39160;48.580;7.756;2023-05-21T03:20:22;17.00;99.90
53272;DHT22;39160;48.580;7.756;2023-05-21T03:25:13;17.10;99.90
53272;DHT22;39160;48.580;7.756;2023-05-21T03:30:04;17.00;99.90
53272;DHT22;39160;48.580;7.756;2023-05-21T03:34:55;17.00;99.90
53272;DHT22;39160;48.580;7.756;2023-05-21T03:39:46;16.90;99.90
53272;DHT22;39160;48.580;7.756;2023-05-21T03:44:36;16.90;99.90
53272;DHT22;39160;48.580;7.756;2023-05-21T03:49:27;16.90;99.90
53272;DHT22;39160;48.580;7.756;2023-05-21T03:54:18;16.90;99.90
53272;DHT22;39160;48.580;7.756;2023-05-21T03:59:08;16.90;99.90
53272;DHT22;39160;48.580;7.756;2023-05-21T04:03:59;16.90;99.90
53272;DHT22;39160;48.580;7.756;2023-05-21T04:08:49;16.80;99.90
53272;DHT22;39160;48.580;7.756;2023-05-21T04:13:41;16.80;99.90
53272;DHT22;39160;48.580;7.756;2023-05-21T04:18:32;16.80;99.90
53272;DHT22;39160;48.580;7.756;2023-05-21T04:23:23;16.90;99.90
53272;DHT22;39160;48.580;7.756;2023-05-21T04:28:14;17.00;99.90
53272;DHT22;39160;48.580;7.756;2023-05-21T04:33:09;17.00;99.90
53272;DHT22;39160;48.580;7.756;2023-05-21T04:38:00;17.10;99.90
53272;DHT22;39160;48.580;7.756;2023-05-21T04:42:51;17.00;99.90
53272;DHT22;39160;48.580;7.756;2023-05-21T04:47:42;17.00;99.90
53272;DHT22;39160;48.580;7.756;2023-05-21T04:52:33;16.90;99.90
53272;DHT22;39160;48.580;7.756;2023-05-21T04:57:24;17.00;99.90
53272;DHT22;39160;48.580;7.756;2023-05-21T05:02:15;17.00;99.90
53272;DHT22;39160;48.580;7.756;2023-05-21T05:07:05;17.00;99.90
53272;DHT22;39160;48.580;7.756;2023-05-21T05:11:56;17.00;99.90
53272;DHT22;39160;48.580;7.756;2023-05-21T05:16:47;17.00;99.90
53272;DHT22;39160;48.580;7.756;2023-05-21T05:21:38;17.00;99.90
53272;DHT22;39160;48.580;7.756;2023-05-21T05:26:28;16.90;99.90
53272;DHT22;39160;48.580;7.756;2023-05-21T05:31:19;17.00;99.90
53272;DHT22;39160;48.580;7.756;2023-05-21T05:36:10;17.20;99.90
53272;DHT22;39160;48.580;7.756;2023-05-21T05:41:00;17.10;99.90
53272;DHT22;39160;48.580;7.756;2023-05-21T05:45:51;17.10;99.90
53272;DHT22;39160;48.580;7.756;2023-05-21T05:50:42;17.10;99.90
53272;DHT22;39160;48.580;7.756;2023-05-21T05:55:33;17.20;99.90
53272;DHT22;39160;48.580;7.756;2023-05-21T06:00:23;17.30;99.90
53272;DHT22;39160;48.580;7.756;2023-05-21T06:05:14;17.30;99.90
53272;DHT22;39160;48.580;7.756;2023-05-21T06:10:06;17.40;99.90
53272;DHT22;39160;48.580;7.756;2023-05-21T06:14:57;17.50;99.90
53272;DHT22;39160;48.580;7.756;2023-05-21T06:19:48;17.30;99.90
53272;DHT22;39160;48.580;7.756;2023-05-21T06:24:38;17.50;99.90
53272;DHT22;39160;48.580;7.756;2023-05-21T06:29:29;17.60;99.90
53272;DHT22;39160;48.580;7.756;2023-05-21T06:34:20;17.60;99.90
53272;DHT22;39160;48.580;7.756;2023-05-21T06:39:10;17.60;99.90
53272;DHT22;39160;48.580;7.756;2023-05-21T06:44:01;17.70;99.90
53272;DHT22;39160;48.580;7.756;2023-05-21T06:48:52;17.70;99.90
53272;DHT22;39160;48.580;7.756;2023-05-21T06:53:43;17.60;99.90
53272;DHT22;39160;48.580;7.756;2023-05-21T06:58:33;17.70;99.90
53272;DHT22;39160;48.580;7.756;2023-05-21T07:03:24;17.90;99.90
53272;DHT22;39160;48.580;7.756;2023-05-21T07:08:15;18.00;99.90
53272;DHT22;39160;48.580;7.756;2023-05-21T07:13:06;18.10;99.90
53272;DHT22;39160;48.580;7.756;2023-05-21T07:17:56;18.30;99.90
53272;DHT22;39160;48.580;7.756;2023-05-21T07:22:47;18.30;99.90
53272;DHT22;39160;48.580;7.756;2023-05-21T07:27:37;18.30;99.90
53272;DHT22;39160;48.580;7.756;2023-05-21T07:32:28;18.30;99.90
53272;DHT22;39160;48.580;7.756;2023-05-21T07:37:19;18.40;99.90
53272;DHT22;39160;48.580;7.756;2023-05-21T07:42:10;18.60;99.90
53272;DHT22;39160;48.580;7.756;2023-05-21T07:47:01;18.90;99.90
53272;DHT22;39160;48.580;7.756;2023-05-21T07:51:51;19.00;99.90
53272;DHT22;39160;48.580;7.756;2023-05-21T07:56:42;19.10;99.90
53272;DHT22;39160;48.580;7.756;2023-05-21T08:01:32;19.30;99.90
53272;DHT22;39160;48.580;7.756;2023-05-21T08:06:23;19.30;99.90
53272;DHT22;39160;48.580;7.756;2023-05-21T08:11:17;19.60;99.90
53272;DHT22;39160;48.580;7.756;2023-05-21T08:16:07;19.50;99.90
53272;DHT22;39160;48.580;7.756;2023-05-21T08:20:58;19.50;99.90
53272;DHT22;39160;48.580;7.756;2023-05-21T08:25:49;19.50;99.90
53272;DHT22;39160;48.580;7.756;2023-05-21T08:30:40;19.50;99.90
53272;DHT22;39160;48.580;7.756;2023-05-21T08:35:31;19.50;99.90
53272;DHT22;39160;48.580;7.756;2023-05-21T08:40:21;19.70;99.90
53272;DHT22;39160;48.580;7.756;2023-05-21T08:45:14;19.90;99.90
53272;DHT22;39160;48.580;7.756;2023-05-21T08:50:26;19.90;99.90
53272;DHT22;39160;48.580;7.756;2023-05-21T08:55:17;19.90;99.90
53272;DHT22;39160;48.580;7.756;2023-05-21T09:00:08;20.20;99.90
53272;DHT22;39160;48.580;7.756;2023-05-21T09:05:00;20.30;99.90
53272;DHT22;39160;48.580;7.756;2023-05-21T09:09:54;20.40;99.90
53272;DHT22;39160;48.580;7.756;2023-05-21T09:14:46;20.50;99.90
53272;DHT22;39160;48.580;7.756;2023-05-21T09:19:37;20.50;99.90
53272;DHT22;39160;48.580;7.756;2023-05-21T09:24:29;20.50;99.90
53272;DHT22;39160;48.580;7.756;2023-05-21T09:29:20;20.60;99.90
53272;DHT22;39160;48.580;7.756;2023-05-21T09:34:11;20.60;99.90
53272;DHT22;39160;48.580;7.756;2023-05-21T09:39:03;20.70;99.90
53272;DHT22;39160;48.580;7.756;2023-05-21T09:43:58;21.00;99.90
53272;DHT22;39160;48.580;7.756;2023-05-21T09:48:49;21.00;99.90
53272;DHT22;39160;48.580;7.756;2023-05-21T09:58:34;21.10;99.90
53272;DHT22;39160;48.580;7.756;2023-05-21T10:03:26;21.10;99.90
53272;DHT22;39160;48.580;7.756;2023-05-21T10:08:18;21.10;99.90
53272;DHT22;39160;48.580;7.756;2023-05-21T10:13:11;21.20;99.90
53272;DHT22;39160;48.580;7.756;2023-05-21T10:18:04;21.30;99.90
53272;DHT22;39160;48.580;7.756;2023-05-21T10:22:57;21.50;99.90
53272;DHT22;39160;48.580;7.756;2023-05-21T10:27:48;21.50;99.90
53272;DHT22;39160;48.580;7.756;2023-05-21T10:32:40;21.50;99.90
53272;DHT22;39160;48.580;7.756;2023-05-21T10:37:33;21.70;99.90
53272;DHT22;39160;48.580;7.756;2023-05-21T10:52:32;22.00;99.90
53272;DHT22;39160;48.580;7.756;2023-05-21T11:02:34;22.30;99.90
53272;DHT22;39160;48.580;7.756;2023-05-21T11:07:51;22.40;99.90
53272;DHT22;39160;48.580;7.756;2023-05-21T11:13:12;22.50;99.80
53272;DHT22;39160;48.580;7.756;2023-05-21T11:18:03;22.50;99.70
53272;DHT22;39160;48.580;7.756;2023-05-21T11:22:57;22.60;99.70
53272;DHT22;39160;48.580;7.756;2023-05-21T11:27:47;22.90;99.50
53272;DHT22;39160;48.580;7.756;2023-05-21T11:32:39;22.90;99.30
53272;DHT22;39160;48.580;7.756;2023-05-21T11:37:37;23.00;99.20
53272;DHT22;39160;48.580;7.756;2023-05-21T11:42:36;23.20;99.00
53272;DHT22;39160;48.580;7.756;2023-05-21T11:47:28;23.20;98.80
53272;DHT22;39160;48.580;7.756;2023-05-21T11:52:19;23.30;98.80
53272;DHT22;39160;48.580;7.756;2023-05-21T11:57:10;23.50;98.40
53272;DHT22;39160;48.580;7.756;2023-05-21T12:02:01;23.60;98.20
53272;DHT22;39160;48.580;7.756;2023-05-21T12:06:52;23.60;98.00
53272;DHT22;39160;48.580;7.756;2023-05-21T12:11:43;23.90;97.70
53272;DHT22;39160;48.580;7.756;2023-05-21T12:16:34;24.20;97.60
53272;DHT22;39160;48.580;7.756;2023-05-21T12:21:29;24.60;97.30
53272;DHT22;39160;48.580;7.756;2023-05-21T12:26:24;24.70;97.30
53272;DHT22;39160;48.580;7.756;2023-05-21T12:31:15;25.00;97.10
53272;DHT22;39160;48.580;7.756;2023-05-21T12:36:05;25.30;96.90
53272;DHT22;39160;48.580;7.756;2023-05-21T12:41:02;25.80;96.80
53272;DHT22;39160;48.580;7.756;2023-05-21T12:45:53;26.40;96.30
53272;DHT22;39160;48.580;7.756;2023-05-21T12:50:44;26.50;95.90
53272;DHT22;39160;48.580;7.756;2023-05-21T12:55:35;26.90;95.60
53272;DHT22;39160;48.580;7.756;2023-05-21T13:00:25;27.40;95.10
53272;DHT22;39160;48.580;7.756;2023-05-21T13:05:17;28.30;94.50
53272;DHT22;39160;48.580;7.756;2023-05-21T13:10:08;29.10;93.40
53272;DHT22;39160;48.580;7.756;2023-05-21T13:15:00;29.00;93.10
53272;DHT22;39160;48.580;7.756;2023-05-21T13:20:15;29.50;92.50
53272;DHT22;39160;48.580;7.756;2023-05-21T13:25:08;29.90;91.80
53272;DHT22;39160;48.580;7.756;2023-05-21T13:29:58;30.80;91.30
53272;DHT22;39160;48.580;7.756;2023-05-21T13:34:49;30.60;90.80
53272;DHT22;39160;48.580;7.756;2023-05-21T13:39:40;31.20;90.30
53272;DHT22;39160;48.580;7.756;2023-05-21T13:44:31;32.20;88.70
53272;DHT22;39160;48.580;7.756;2023-05-21T13:49:25;32.20;87.00
53272;DHT22;39160;48.580;7.756;2023-05-21T13:54:16;32.60;85.30
53272;DHT22;39160;48.580;7.756;2023-05-21T13:59:06;33.10;83.70
53272;DHT22;39160;48.580;7.756;2023-05-21T14:03:57;32.70;81.90
53272;DHT22;39160;48.580;7.756;2023-05-21T14:08:53;32.90;81.10
53272;DHT22;39160;48.580;7.756;2023-05-21T14:13:43;32.60;79.50
53272;DHT22;39160;48.580;7.756;2023-05-21T14:18:34;32.90;78.20
53272;DHT22;39160;48.580;7.756;2023-05-21T14:23:25;33.20;77.00
53272;DHT22;39160;48.580;7.756;2023-05-21T14:28:15;33.40;76.30
53272;DHT22;39160;48.580;7.756;2023-05-21T14:33:06;33.00;75.60
53272;DHT22;39160;48.580;7.756;2023-05-21T14:37:57;33.10;74.90
53272;DHT22;39160;48.580;7.756;2023-05-21T14:42:47;33.90;73.80
53272;DHT22;39160;48.580;7.756;2023-05-21T14:47:38;33.70;72.90
53272;DHT22;39160;48.580;7.756;2023-05-21T14:52:29;34.40;71.50
53272;DHT22;39160;48.580;7.756;2023-05-21T14:57:19;33.50;71.70
53272;DHT22;39160;48.580;7.756;2023-05-21T15:02:10;32.80;71.60
53272;DHT22;39160;48.580;7.756;2023-05-21T15:07:01;33.00;70.90
53272;DHT22;39160;48.580;7.756;2023-05-21T15:11:51;33.10;70.80
53272;DHT22;39160;48.580;7.756;2023-05-21T15:16:43;33.10;70.20
53272;DHT22;39160;48.580;7.756;2023-05-21T15:21:33;34.10;69.70
53272;DHT22;39160;48.580;7.756;2023-05-21T15:26:24;34.80;68.80
53272;DHT22;39160;48.580;7.756;2023-05-21T15:31:16;34.10;68.10
53272;DHT22;39160;48.580;7.756;2023-05-21T15:36:07;34.10;68.20
53272;DHT22;39160;48.580;7.756;2023-05-21T15:40:57;34.10;67.20
53272;DHT22;39160;48.580;7.756;2023-05-21T15:45:48;34.20;66.70
53272;DHT22;39160;48.580;7.756;2023-05-21T15:50:39;35.00;65.70
53272;DHT22;39160;48.580;7.756;2023-05-21T15:55:33;34.70;65.40
53272;DHT22;39160;48.580;7.756;2023-05-21T16:00:23;34.90;64.80
53272;DHT22;39160;48.580;7.756;2023-05-21T16:05:14;35.80;64.10
53272;DHT22;39160;48.580;7.756;2023-05-21T16:10:08;36.80;63.20
53272;DHT22;39160;48.580;7.756;2023-05-21T16:14:58;36.90;62.10
53272;DHT22;39160;48.580;7.756;2023-05-21T16:19:49;35.10;63.40
53272;DHT22;39160;48.580;7.756;2023-05-21T16:24:40;34.30;63.90
53272;DHT22;39160;48.580;7.756;2023-05-21T16:29:31;34.20;63.60
53272;DHT22;39160;48.580;7.756;2023-05-21T16:34:21;32.60;64.70
53272;DHT22;39160;48.580;7.756;2023-05-21T16:39:12;30.90;66.70
53272;DHT22;39160;48.580;7.756;2023-05-21T16:44:02;30.20;67.10
53272;DHT22;39160;48.580;7.756;2023-05-21T16:48:53;30.50;66.70
53272;DHT22;39160;48.580;7.756;2023-05-21T16:53:44;30.10;67.00
53272;DHT22;39160;48.580;7.756;2023-05-21T16:58:35;29.70;67.60
53272;DHT22;39160;48.580;7.756;2023-05-21T17:03:25;29.30;68.00
53272;DHT22;39160;48.580;7.756;2023-05-21T17:08:17;29.20;68.40
53272;DHT22;39160;48.580;7.756;2023-05-21T17:13:07;29.10;68.70
53272;DHT22;39160;48.580;7.756;2023-05-21T17:17:58;29.00;68.90
53272;DHT22;39160;48.580;7.756;2023-05-21T17:22:49;28.90;69.30
53272;DHT22;39160;48.580;7.756;2023-05-21T17:27:39;28.80;69.50
53272;DHT22;39160;48.580;7.756;2023-05-21T17:32:30;29.00;69.40
53272;DHT22;39160;48.580;7.756;2023-05-21T17:37:21;29.20;69.40
53272;DHT22;39160;48.580;7.756;2023-05-21T17:42:11;29.20;69.60
53272;DHT22;39160;48.580;7.756;2023-05-21T17:47:02;29.30;69.70
53272;DHT22;39160;48.580;7.756;2023-05-21T17:51:53;29.00;70.30
53272;DHT22;39160;48.580;7.756;2023-05-21T17:56:44;28.50;70.70
53272;DHT22;39160;48.580;7.756;2023-05-21T18:01:37;28.10;71.50
53272;DHT22;39160;48.580;7.756;2023-05-21T18:06:28;27.90;71.70
53272;DHT22;39160;48.580;7.756;2023-05-21T18:11:26;27.60;72.20
53272;DHT22;39160;48.580;7.756;2023-05-21T18:16:17;27.50;72.50
53272;DHT22;39160;48.580;7.756;2023-05-21T18:21:08;27.20;73.00
53272;DHT22;39160;48.580;7.756;2023-05-21T18:25:59;26.90;73.30
53272;DHT22;39160;48.580;7.756;2023-05-21T18:30:50;26.80;73.30
53272;DHT22;39160;48.580;7.756;2023-05-21T18:35:40;26.80;73.60
53272;DHT22;39160;48.580;7.756;2023-05-21T18:40:33;26.60;73.60
53272;DHT22;39160;48.580;7.756;2023-05-21T18:45:23;26.60;73.50
53272;DHT22;39160;48.580;7.756;2023-05-21T18:50:14;26.60;73.60
53272;DHT22;39160;48.580;7.756;2023-05-21T18:55:05;26.50;73.60
53272;DHT22;39160;48.580;7.756;2023-05-21T18:59:56;26.20;74.30
53272;DHT22;39160;48.580;7.756;2023-05-21T19:04:46;26.00;74.80
53272;DHT22;39160;48.580;7.756;2023-05-21T19:09:38;26.00;75.00
53272;DHT22;39160;48.580;7.756;2023-05-21T19:14:28;25.60;75.80
53272;DHT22;39160;48.580;7.756;2023-05-21T19:19:19;25.40;76.30
53272;DHT22;39160;48.580;7.756;2023-05-21T19:24:10;25.40;76.80
53272;DHT22;39160;48.580;7.756;2023-05-21T19:29:01;25.40;77.10
53272;DHT22;39160;48.580;7.756;2023-05-21T19:33:52;25.40;77.50
53272;DHT22;39160;48.580;7.756;2023-05-21T19:38:46;25.30;78.10
53272;DHT22;39160;48.580;7.756;2023-05-21T19:43:37;25.20;78.60
53272;DHT22;39160;48.580;7.756;2023-05-21T19:48:28;25.20;78.90
53272;DHT22;39160;48.580;7.756;2023-05-21T19:53:18;25.00;79.40
53272;DHT22;39160;48.580;7.756;2023-05-21T19:58:09;25.00;79.80
53272;DHT22;39160;48.580;7.756;2023-05-21T20:03:02;25.00;80.10
53272;DHT22;39160;48.580;7.756;2023-05-21T20:07:53;24.90;80.50
53272;DHT22;39160;48.580;7.756;2023-05-21T20:12:43;24.80;81.00
53272;DHT22;39160;48.580;7.756;2023-05-21T20:17:34;24.80;81.30
53272;DHT22;39160;48.580;7.756;2023-05-21T20:22:27;24.80;82.00
53272;DHT22;39160;48.580;7.756;2023-05-21T20:27:18;24.70;82.30
53272;DHT22;39160;48.580;7.756;2023-05-21T20:32:09;24.50;83.00
53272;DHT22;39160;48.580;7.756;2023-05-21T20:37:00;24.40;83.20
53272;DHT22;39160;48.580;7.756;2023-05-21T20:41:52;24.30;83.90
53272;DHT22;39160;48.580;7.756;2023-05-21T20:46:43;24.40;84.10
53272;DHT22;39160;48.580;7.756;2023-05-21T20:51:33;24.20;84.80
53272;DHT22;39160;48.580;7.756;2023-05-21T20:56:24;24.20;85.30
53272;DHT22;39160;48.580;7.756;2023-05-21T21:01:15;24.00;85.80
53272;DHT22;39160;48.580;7.756;2023-05-21T21:06:09;23.80;86.50
53272;DHT22;39160;48.580;7.756;2023-05-21T21:10:59;23.60;86.90
53272;DHT22;39160;48.580;7.756;2023-05-21T21:15:50;23.60;87.30
53272;DHT22;39160;48.580;7.756;2023-05-21T21:20:41;23.30;87.90
53272;DHT22;39160;48.580;7.756;2023-05-21T21:25:31;23.30;88.40
53272;DHT22;39160;48.580;7.756;2023-05-21T21:30:22;23.20;89.00
53272;DHT22;39160;48.580;7.756;2023-05-21T21:35:13;23.10;89.30
53272;DHT22;39160;48.580;7.756;2023-05-21T21:40:04;23.10;89.40
53272;DHT22;39160;48.580;7.756;2023-05-21T21:44:55;23.00;90.00
53272;DHT22;39160;48.580;7.756;2023-05-21T21:49:46;22.90;90.30
53272;DHT22;39160;48.580;7.756;2023-05-21T21:54:37;22.90;90.60
53272;DHT22;39160;48.580;7.756;2023-05-21T21:59:28;22.90;90.70
53272;DHT22;39160;48.580;7.756;2023-05-21T22:04:18;22.90;90.90
53272;DHT22;39160;48.580;7.756;2023-05-21T22:09:09;23.00;91.00
53272;DHT22;39160;48.580;7.756;2023-05-21T22:13:59;23.00;91.20
53272;DHT22;39160;48.580;7.756;2023-05-21T22:18:50;22.90;91.40
53272;DHT22;39160;48.580;7.756;2023-05-21T22:23:43;22.70;91.80
53272;DHT22;39160;48.580;7.756;2023-05-21T22:28:33;22.60;91.90
53272;DHT22;39160;48.580;7.756;2023-05-21T22:33:24;22.60;92.10
53272;DHT22;39160;48.580;7.756;2023-05-21T22:38:16;22.60;92.30
53272;DHT22;39160;48.580;7.756;2023-05-21T22:43:07;22.50;92.50
53272;DHT22;39160;48.580;7.756;2023-05-21T22:47:57;22.40;92.80
53272;DHT22;39160;48.580;7.756;2023-05-21T22:52:52;22.30;93.00
53272;DHT22;39160;48.580;7.756;2023-05-21T22:57:43;22.30;93.20
53272;DHT22;39160;48.580;7.756;2023-05-21T23:02:34;22.20;93.50
53272;DHT22;39160;48.580;7.756;2023-05-21T23:07:24;22.00;93.90
53272;DHT22;39160;48.580;7.756;2023-05-21T23:12:15;22.00;94.20
53272;DHT22;39160;48.580;7.756;2023-05-21T23:17:06;22.00;94.20
53272;DHT22;39160;48.580;7.756;2023-05-21T23:21:56;21.60;94.60
53272;DHT22;39160;48.580;7.756;2023-05-21T23:26:47;21.50;94.80
53272;DHT22;39160;48.580;7.756;2023-05-21T23:31:38;21.50;95.10
53272;DHT22;39160;48.580;7.756;2023-05-21T23:36:29;21.60;95.10
53272;DHT22;39160;48.580;7.756;2023-05-21T23:41:20;21.60;95.70
53272;DHT22;39160;48.580;7.756;2023-05-21T23:46:12;21.50;95.50
53272;DHT22;39160;48.580;7.756;2023-05-21T23:51:02;21.30;95.90
53272;DHT22;39160;48.580;7.756;2023-05-21T23:55:53;21.20;96.20
